This is the latest recevied weather packets stored in our database for station/object PY4EI-13. If no packets are shown the sender has not sent any weather packets the latest 10 day(s).
| Time | Temp. | Humidity | Pressure | Rain* | Wind** | Luminosity | Snow |
|---|---|---|---|---|---|---|---|
| 1787967003 | 24.44° C | 55% | 1013.9 hPa | 0 mm | - | - | - |
| 1787966104 | 24.44° C | 54% | 1013.8 hPa | 0 mm | - | - | - |
| 1787965204 | 25° C | 54% | 1013.7 hPa | 0 mm | - | - | - |
| 1787964304 | 25° C | 54% | 1013.4 hPa | 0 mm | - | - | - |
| 1787963404 | 25° C | 53% | 1013.3 hPa | 0 mm | - | - | - |
| 1787949904 | 27.22° C | 46% | 1010.4 hPa | 0 mm | - | - | - |
| 1787948104 | 27.78° C | 44% | 1009.8 hPa | 0 mm | - | - | - |
| 1787945403 | 27.78° C | 42% | 1009.6 hPa | 0 mm | - | - | - |
| 1787944504 | 27.78° C | 43% | 1009.7 hPa | 0 mm | - | - | - |
| 1787941803 | 27.78° C | 43% | 1009.8 hPa | 0 mm | - | - | - |
| 1787940904 | 27.22° C | 45% | 1009.9 hPa | 0 mm | - | - | - |
| 1787937303 | 26.11° C | 49% | 1010.9 hPa | 0 mm | - | - | - |
| 1787934604 | 25.56° C | 50% | 1011.4 hPa | 0 mm | - | - | - |
| 1787930104 | 24.44° C | 53% | 1013.1 hPa | 0 mm | - | - | - |
| 1787929204 | 23.89° C | 54% | 1013.5 hPa | 0 mm | - | - | - |
| 1787927404 | 23.33° C | 55% | 1014.4 hPa | 0 mm | - | - | - |
| 1787926504 | 23.33° C | 55% | 1014.6 hPa | 0 mm | - | - | - |
| 1787925617 | 22.78° C | 56% | 1015 hPa | 0 mm | - | - | - |
| 1787923804 | 22.78° C | 56% | 1015.8 hPa | 0 mm | - | - | - |
| 1787922904 | 22.22° C | 56% | 1016.1 hPa | 0 mm | - | - | - |
| 1787922003 | 22.22° C | 57% | 1016.2 hPa | 0 mm | - | - | - |
| 1787921104 | 21.67° C | 57% | 1016.3 hPa | 0 mm | - | - | - |
| 1787920203 | 21.67° C | 58% | 1016.2 hPa | 0 mm | - | - | - |
| 1787919303 | 21.11° C | 58% | 1016.4 hPa | 0 mm | - | - | - |
| 1787918403 | 21.11° C | 59% | 1016.5 hPa | 0 mm | - | - | - |
* Rain since midnight (hover to see other rain measurements)
** Current wind speed in m/s (hover to see current wind gust speed)